sensor_id;sensor_type;location;lat;lon;timestamp;temperature;humidity
27759;DHT22;15148;48.972;12.794;2022-09-13T00:04:32;12.30;99.90
27759;DHT22;15148;48.972;12.794;2022-09-13T00:09:34;12.30;99.90
27759;DHT22;15148;48.972;12.794;2022-09-13T00:14:37;12.20;99.90
27759;DHT22;15148;48.972;12.794;2022-09-13T00:19:39;12.30;99.90
27759;DHT22;15148;48.972;12.794;2022-09-13T00:24:41;12.20;99.90
27759;DHT22;15148;48.972;12.794;2022-09-13T00:29:42;12.20;99.90
27759;DHT22;15148;48.972;12.794;2022-09-13T00:34:44;12.10;99.90
27759;DHT22;15148;48.972;12.794;2022-09-13T00:39:46;12.00;99.90
27759;DHT22;15148;48.972;12.794;2022-09-13T00:50:15;11.80;99.90
27759;DHT22;15148;48.972;12.794;2022-09-13T01:00:43;11.60;99.90
27759;DHT22;15148;48.972;12.794;2022-09-13T01:05:50;11.60;99.90
27759;DHT22;15148;48.972;12.794;2022-09-13T01:10:54;11.50;99.90
27759;DHT22;15148;48.972;12.794;2022-09-13T01:15:57;11.60;99.90
27759;DHT22;15148;48.972;12.794;2022-09-13T01:26:50;11.50;99.90
27759;DHT22;15148;48.972;12.794;2022-09-13T01:43:03;11.30;99.90
27759;DHT22;15148;48.972;12.794;2022-09-13T01:58:58;11.20;99.90
27759;DHT22;15148;48.972;12.794;2022-09-13T02:04:07;11.20;99.90
27759;DHT22;15148;48.972;12.794;2022-09-13T02:09:13;11.20;99.90
27759;DHT22;15148;48.972;12.794;2022-09-13T02:15:02;11.30;99.90
27759;DHT22;15148;48.972;12.794;2022-09-13T02:19:57;11.30;99.90
27759;DHT22;15148;48.972;12.794;2022-09-13T02:25:05;11.30;99.90
27759;DHT22;15148;48.972;12.794;2022-09-13T02:30:09;11.30;99.90
27759;DHT22;15148;48.972;12.794;2022-09-13T02:35:32;11.30;99.90
27759;DHT22;15148;48.972;12.794;2022-09-13T02:40:42;11.40;99.90
27759;DHT22;15148;48.972;12.794;2022-09-13T02:45:52;11.30;99.90
27759;DHT22;15148;48.972;12.794;2022-09-13T02:51:38;11.30;99.90
27759;DHT22;15148;48.972;12.794;2022-09-13T03:01:27;11.20;99.90
27759;DHT22;15148;48.972;12.794;2022-09-13T03:06:30;11.10;99.90
27759;DHT22;15148;48.972;12.794;2022-09-13T03:13:02;11.00;99.90
27759;DHT22;15148;48.972;12.794;2022-09-13T03:33:30;11.00;99.90
27759;DHT22;15148;48.972;12.794;2022-09-13T03:48:43;10.90;99.90
27759;DHT22;15148;48.972;12.794;2022-09-13T03:53:51;11.00;99.90
27759;DHT22;15148;48.972;12.794;2022-09-13T03:58:54;11.10;99.90
27759;DHT22;15148;48.972;12.794;2022-09-13T04:03:56;11.00;99.90
27759;DHT22;15148;48.972;12.794;2022-09-13T04:08:58;11.00;99.90
27759;DHT22;15148;48.972;12.794;2022-09-13T04:14:00;11.00;99.90
27759;DHT22;15148;48.972;12.794;2022-09-13T04:19:04;11.00;99.90
27759;DHT22;15148;48.972;12.794;2022-09-13T04:24:05;11.00;99.90
27759;DHT22;15148;48.972;12.794;2022-09-13T04:29:07;10.80;99.90
27759;DHT22;15148;48.972;12.794;2022-09-13T04:34:09;10.80;99.90
27759;DHT22;15148;48.972;12.794;2022-09-13T04:39:11;10.70;99.90
27759;DHT22;15148;48.972;12.794;2022-09-13T04:44:16;10.80;99.90
27759;DHT22;15148;48.972;12.794;2022-09-13T04:49:18;10.80;99.90
27759;DHT22;15148;48.972;12.794;2022-09-13T04:54:23;10.90;99.90
27759;DHT22;15148;48.972;12.794;2022-09-13T04:59:25;10.90;99.90
27759;DHT22;15148;48.972;12.794;2022-09-13T05:04:27;10.80;99.90
27759;DHT22;15148;48.972;12.794;2022-09-13T05:09:28;10.70;99.90
27759;DHT22;15148;48.972;12.794;2022-09-13T05:14:30;10.70;99.90
27759;DHT22;15148;48.972;12.794;2022-09-13T05:19:32;10.70;99.90
27759;DHT22;15148;48.972;12.794;2022-09-13T05:24:34;10.80;99.90
27759;DHT22;15148;48.972;12.794;2022-09-13T05:29:36;10.80;99.90
27759;DHT22;15148;48.972;12.794;2022-09-13T05:34:37;10.80;99.90
27759;DHT22;15148;48.972;12.794;2022-09-13T05:39:39;10.90;99.90
27759;DHT22;15148;48.972;12.794;2022-09-13T05:45:01;11.00;99.90
27759;DHT22;15148;48.972;12.794;2022-09-13T05:50:03;11.20;99.90
27759;DHT22;15148;48.972;12.794;2022-09-13T05:55:25;11.40;99.90
27759;DHT22;15148;48.972;12.794;2022-09-13T06:00:28;11.60;99.90
27759;DHT22;15148;48.972;12.794;2022-09-13T06:05:29;11.80;99.90
27759;DHT22;15148;48.972;12.794;2022-09-13T06:10:32;12.00;99.90
27759;DHT22;15148;48.972;12.794;2022-09-13T06:15:34;12.00;99.90
27759;DHT22;15148;48.972;12.794;2022-09-13T06:20:42;12.10;99.90
27759;DHT22;15148;48.972;12.794;2022-09-13T06:25:43;12.20;99.90
27759;DHT22;15148;48.972;12.794;2022-09-13T06:30:45;12.70;99.90
27759;DHT22;15148;48.972;12.794;2022-09-13T06:35:47;12.80;99.90
27759;DHT22;15148;48.972;12.794;2022-09-13T06:40:58;13.00;99.90
27759;DHT22;15148;48.972;12.794;2022-09-13T06:46:02;13.40;99.90
27759;DHT22;15148;48.972;12.794;2022-09-13T06:51:10;13.60;99.90
27759;DHT22;15148;48.972;12.794;2022-09-13T06:56:18;13.90;99.90
27759;DHT22;15148;48.972;12.794;2022-09-13T07:01:23;14.10;99.90
27759;DHT22;15148;48.972;12.794;2022-09-13T07:06:28;14.20;99.90
27759;DHT22;15148;48.972;12.794;2022-09-13T07:11:33;14.30;99.90
27759;DHT22;15148;48.972;12.794;2022-09-13T07:16:36;14.50;99.90
27759;DHT22;15148;48.972;12.794;2022-09-13T07:21:38;14.60;99.90
27759;DHT22;15148;48.972;12.794;2022-09-13T07:26:40;14.70;99.90
27759;DHT22;15148;48.972;12.794;2022-09-13T07:31:47;15.00;99.90
27759;DHT22;15148;48.972;12.794;2022-09-13T07:36:49;15.20;99.90
27759;DHT22;15148;48.972;12.794;2022-09-13T07:41:51;15.60;99.90
27759;DHT22;15148;48.972;12.794;2022-09-13T07:46:54;15.90;99.90
27759;DHT22;15148;48.972;12.794;2022-09-13T07:51:56;16.20;99.90
27759;DHT22;15148;48.972;12.794;2022-09-13T07:56:57;16.30;99.90
27759;DHT22;15148;48.972;12.794;2022-09-13T08:01:59;16.60;99.90
27759;DHT22;15148;48.972;12.794;2022-09-13T08:07:01;16.70;99.90
27759;DHT22;15148;48.972;12.794;2022-09-13T08:12:03;16.90;99.90
27759;DHT22;15148;48.972;12.794;2022-09-13T08:17:04;17.00;99.90
27759;DHT22;15148;48.972;12.794;2022-09-13T08:22:07;17.30;99.90
27759;DHT22;15148;48.972;12.794;2022-09-13T08:27:09;17.60;99.90
27759;DHT22;15148;48.972;12.794;2022-09-13T08:32:10;17.60;99.90
27759;DHT22;15148;48.972;12.794;2022-09-13T08:37:12;17.80;99.90
27759;DHT22;15148;48.972;12.794;2022-09-13T08:47:42;18.10;99.90
27759;DHT22;15148;48.972;12.794;2022-09-13T08:52:58;18.10;99.90
27759;DHT22;15148;48.972;12.794;2022-09-13T09:03:35;17.90;99.90
27759;DHT22;15148;48.972;12.794;2022-09-13T09:08:45;17.90;99.90
27759;DHT22;15148;48.972;12.794;2022-09-13T09:14:00;18.20;99.90
27759;DHT22;15148;48.972;12.794;2022-09-13T09:19:18;18.50;99.90
27759;DHT22;15148;48.972;12.794;2022-09-13T09:24:23;18.70;99.90
27759;DHT22;15148;48.972;12.794;2022-09-13T09:29:28;18.80;99.90
27759;DHT22;15148;48.972;12.794;2022-09-13T09:40:11;18.70;99.90
27759;DHT22;15148;48.972;12.794;2022-09-13T09:45:33;18.70;99.90
27759;DHT22;15148;48.972;12.794;2022-09-13T09:50:42;18.80;99.90
27759;DHT22;15148;48.972;12.794;2022-09-13T09:55:49;18.80;99.90
27759;DHT22;15148;48.972;12.794;2022-09-13T10:00:57;18.90;99.90
27759;DHT22;15148;48.972;12.794;2022-09-13T10:06:20;18.80;99.90
27759;DHT22;15148;48.972;12.794;2022-09-13T10:11:23;18.80;99.90
27759;DHT22;15148;48.972;12.794;2022-09-13T10:16:28;18.90;99.90
27759;DHT22;15148;48.972;12.794;2022-09-13T10:21:30;19.00;99.90
27759;DHT22;15148;48.972;12.794;2022-09-13T10:26:33;19.10;99.90
27759;DHT22;15148;48.972;12.794;2022-09-13T10:31:36;19.30;99.90
27759;DHT22;15148;48.972;12.794;2022-09-13T10:37:28;19.50;99.90
27759;DHT22;15148;48.972;12.794;2022-09-13T10:42:10;19.70;99.90
27759;DHT22;15148;48.972;12.794;2022-09-13T10:47:18;19.80;99.90
27759;DHT22;15148;48.972;12.794;2022-09-13T10:52:36;19.80;99.90
27759;DHT22;15148;48.972;12.794;2022-09-13T10:57:42;19.80;99.90
27759;DHT22;15148;48.972;12.794;2022-09-13T11:08:14;19.70;99.90
27759;DHT22;15148;48.972;12.794;2022-09-13T11:13:56;19.70;99.90
27759;DHT22;15148;48.972;12.794;2022-09-13T11:30:00;19.50;99.90
27759;DHT22;15148;48.972;12.794;2022-09-13T11:40:31;19.30;99.90
27759;DHT22;15148;48.972;12.794;2022-09-13T11:51:24;19.30;99.90
27759;DHT22;15148;48.972;12.794;2022-09-13T11:56:34;19.20;99.90
27759;DHT22;15148;48.972;12.794;2022-09-13T12:01:44;19.10;99.90
27759;DHT22;15148;48.972;12.794;2022-09-13T12:06:59;19.00;99.90
27759;DHT22;15148;48.972;12.794;2022-09-13T12:12:06;18.90;99.90
27759;DHT22;15148;48.972;12.794;2022-09-13T12:17:30;18.70;99.90
27759;DHT22;15148;48.972;12.794;2022-09-13T12:22:35;18.70;99.90
27759;DHT22;15148;48.972;12.794;2022-09-13T12:27:53;18.60;99.90
27759;DHT22;15148;48.972;12.794;2022-09-13T12:32:57;18.60;99.90
27759;DHT22;15148;48.972;12.794;2022-09-13T12:38:28;18.60;99.90
27759;DHT22;15148;48.972;12.794;2022-09-13T12:44:00;18.60;99.90
27759;DHT22;15148;48.972;12.794;2022-09-13T12:54:44;18.80;99.90
27759;DHT22;15148;48.972;12.794;2022-09-13T13:00:27;18.90;99.90
27759;DHT22;15148;48.972;12.794;2022-09-13T13:05:32;19.10;99.90
27759;DHT22;15148;48.972;12.794;2022-09-13T13:10:37;19.20;99.90
27759;DHT22;15148;48.972;12.794;2022-09-13T13:31:06;19.40;99.90
27759;DHT22;15148;48.972;12.794;2022-09-13T13:36:23;19.40;99.90
27759;DHT22;15148;48.972;12.794;2022-09-13T13:46:34;19.30;99.90
27759;DHT22;15148;48.972;12.794;2022-09-13T13:51:36;19.20;99.90
27759;DHT22;15148;48.972;12.794;2022-09-13T13:56:47;19.30;99.90
27759;DHT22;15148;48.972;12.794;2022-09-13T14:01:53;19.30;99.90
27759;DHT22;15148;48.972;12.794;2022-09-13T14:07:15;19.30;99.90
27759;DHT22;15148;48.972;12.794;2022-09-13T14:23:17;19.30;99.90
27759;DHT22;15148;48.972;12.794;2022-09-13T14:28:20;19.20;99.90
27759;DHT22;15148;48.972;12.794;2022-09-13T14:33:26;19.20;99.90
27759;DHT22;15148;48.972;12.794;2022-09-13T14:38:34;19.20;99.90
27759;DHT22;15148;48.972;12.794;2022-09-13T14:43:36;19.20;99.90
27759;DHT22;15148;48.972;12.794;2022-09-13T14:48:44;19.10;99.90
27759;DHT22;15148;48.972;12.794;2022-09-13T14:54:10;19.00;99.90
27759;DHT22;15148;48.972;12.794;2022-09-13T14:59:28;18.80;99.90
27759;DHT22;15148;48.972;12.794;2022-09-13T15:04:31;18.70;99.90
27759;DHT22;15148;48.972;12.794;2022-09-13T15:09:33;18.70;99.90
27759;DHT22;15148;48.972;12.794;2022-09-13T15:14:36;18.60;99.90
27759;DHT22;15148;48.972;12.794;2022-09-13T15:19:47;18.60;99.90
27759;DHT22;15148;48.972;12.794;2022-09-13T15:24:51;18.60;99.90
27759;DHT22;15148;48.972;12.794;2022-09-13T15:30:03;18.50;99.90
27759;DHT22;15148;48.972;12.794;2022-09-13T15:35:25;18.40;99.90
27759;DHT22;15148;48.972;12.794;2022-09-13T15:40:29;18.30;99.90
27759;DHT22;15148;48.972;12.794;2022-09-13T15:45:41;18.30;99.90
27759;DHT22;15148;48.972;12.794;2022-09-13T15:50:43;18.30;99.90
27759;DHT22;15148;48.972;12.794;2022-09-13T15:56:03;18.20;99.90
27759;DHT22;15148;48.972;12.794;2022-09-13T16:01:05;18.10;99.90
27759;DHT22;15148;48.972;12.794;2022-09-13T16:06:08;18.10;99.90
27759;DHT22;15148;48.972;12.794;2022-09-13T16:11:10;18.00;99.90
27759;DHT22;15148;48.972;12.794;2022-09-13T16:16:12;18.10;99.90
27759;DHT22;15148;48.972;12.794;2022-09-13T16:21:15;18.10;99.90
27759;DHT22;15148;48.972;12.794;2022-09-13T16:26:17;18.10;99.90
27759;DHT22;15148;48.972;12.794;2022-09-13T16:31:19;18.10;99.90
27759;DHT22;15148;48.972;12.794;2022-09-13T16:36:21;18.10;99.90
27759;DHT22;15148;48.972;12.794;2022-09-13T16:41:23;18.10;99.90
27759;DHT22;15148;48.972;12.794;2022-09-13T16:46:25;18.10;99.90
27759;DHT22;15148;48.972;12.794;2022-09-13T16:51:27;18.10;99.90
27759;DHT22;15148;48.972;12.794;2022-09-13T16:56:29;18.00;99.90
27759;DHT22;15148;48.972;12.794;2022-09-13T17:01:31;18.00;99.90
27759;DHT22;15148;48.972;12.794;2022-09-13T17:06:33;17.90;99.90
27759;DHT22;15148;48.972;12.794;2022-09-13T17:11:37;17.90;99.90
27759;DHT22;15148;48.972;12.794;2022-09-13T17:16:45;17.80;99.90
27759;DHT22;15148;48.972;12.794;2022-09-13T17:21:48;17.70;99.90
27759;DHT22;15148;48.972;12.794;2022-09-13T17:26:50;17.60;99.90
27759;DHT22;15148;48.972;12.794;2022-09-13T17:31:52;17.60;99.90
27759;DHT22;15148;48.972;12.794;2022-09-13T17:36:54;17.50;99.90
27759;DHT22;15148;48.972;12.794;2022-09-13T17:41:55;17.50;99.90
27759;DHT22;15148;48.972;12.794;2022-09-13T17:46:58;17.40;99.90
27759;DHT22;15148;48.972;12.794;2022-09-13T17:52:00;17.40;99.90
27759;DHT22;15148;48.972;12.794;2022-09-13T17:57:02;17.30;99.90
27759;DHT22;15148;48.972;12.794;2022-09-13T18:02:04;17.30;99.90
27759;DHT22;15148;48.972;12.794;2022-09-13T18:07:06;17.20;99.90
27759;DHT22;15148;48.972;12.794;2022-09-13T18:12:08;17.10;99.90
27759;DHT22;15148;48.972;12.794;2022-09-13T18:17:10;17.10;99.90
27759;DHT22;15148;48.972;12.794;2022-09-13T18:22:14;17.00;99.90
27759;DHT22;15148;48.972;12.794;2022-09-13T18:27:15;16.90;99.90
27759;DHT22;15148;48.972;12.794;2022-09-13T18:32:17;16.90;99.90
27759;DHT22;15148;48.972;12.794;2022-09-13T18:37:19;16.80;99.90
27759;DHT22;15148;48.972;12.794;2022-09-13T18:42:21;16.70;99.90
27759;DHT22;15148;48.972;12.794;2022-09-13T18:47:23;16.70;99.90
27759;DHT22;15148;48.972;12.794;2022-09-13T18:52:25;16.70;99.90
27759;DHT22;15148;48.972;12.794;2022-09-13T18:57:27;16.70;99.90
27759;DHT22;15148;48.972;12.794;2022-09-13T19:02:29;16.70;99.90
27759;DHT22;15148;48.972;12.794;2022-09-13T19:07:32;16.70;99.90
27759;DHT22;15148;48.972;12.794;2022-09-13T19:12:33;16.60;99.90
27759;DHT22;15148;48.972;12.794;2022-09-13T19:17:36;16.60;99.90
27759;DHT22;15148;48.972;12.794;2022-09-13T19:22:38;16.60;99.90
27759;DHT22;15148;48.972;12.794;2022-09-13T19:27:40;16.60;99.90
27759;DHT22;15148;48.972;12.794;2022-09-13T19:32:42;16.50;99.90
27759;DHT22;15148;48.972;12.794;2022-09-13T19:37:44;16.50;99.90
27759;DHT22;15148;48.972;12.794;2022-09-13T19:42:46;16.40;99.90
27759;DHT22;15148;48.972;12.794;2022-09-13T19:47:49;16.40;99.90
27759;DHT22;15148;48.972;12.794;2022-09-13T19:53:12;16.40;99.90
27759;DHT22;15148;48.972;12.794;2022-09-13T19:58:14;16.40;99.90
27759;DHT22;15148;48.972;12.794;2022-09-13T20:03:16;16.30;99.90
27759;DHT22;15148;48.972;12.794;2022-09-13T20:08:22;16.20;99.90
27759;DHT22;15148;48.972;12.794;2022-09-13T20:13:24;16.10;99.90
27759;DHT22;15148;48.972;12.794;2022-09-13T20:18:29;16.10;99.90
27759;DHT22;15148;48.972;12.794;2022-09-13T20:23:35;16.00;99.90
27759;DHT22;15148;48.972;12.794;2022-09-13T20:28:38;16.00;99.90
27759;DHT22;15148;48.972;12.794;2022-09-13T20:33:41;16.00;99.90
27759;DHT22;15148;48.972;12.794;2022-09-13T20:38:46;15.90;99.90
27759;DHT22;15148;48.972;12.794;2022-09-13T20:43:49;15.80;99.90
27759;DHT22;15148;48.972;12.794;2022-09-13T20:48:51;15.80;99.90
27759;DHT22;15148;48.972;12.794;2022-09-13T20:53:55;15.80;99.90
27759;DHT22;15148;48.972;12.794;2022-09-13T20:58:58;15.80;99.90
27759;DHT22;15148;48.972;12.794;2022-09-13T21:04:01;15.80;99.90
27759;DHT22;15148;48.972;12.794;2022-09-13T21:09:04;15.80;99.90
27759;DHT22;15148;48.972;12.794;2022-09-13T21:14:07;15.80;99.90
27759;DHT22;15148;48.972;12.794;2022-09-13T21:19:09;15.80;99.90
27759;DHT22;15148;48.972;12.794;2022-09-13T21:24:12;15.70;99.90
27759;DHT22;15148;48.972;12.794;2022-09-13T21:29:13;15.70;99.90
27759;DHT22;15148;48.972;12.794;2022-09-13T21:34:17;15.60;99.90
27759;DHT22;15148;48.972;12.794;2022-09-13T21:39:19;15.60;99.90
27759;DHT22;15148;48.972;12.794;2022-09-13T21:44:21;15.50;99.90
27759;DHT22;15148;48.972;12.794;2022-09-13T21:49:22;15.40;99.90
27759;DHT22;15148;48.972;12.794;2022-09-13T21:54:24;15.40;99.90
27759;DHT22;15148;48.972;12.794;2022-09-13T21:59:26;15.40;99.90
27759;DHT22;15148;48.972;12.794;2022-09-13T22:04:28;15.40;99.90
27759;DHT22;15148;48.972;12.794;2022-09-13T22:09:30;15.40;99.90
27759;DHT22;15148;48.972;12.794;2022-09-13T22:14:31;15.40;99.90
27759;DHT22;15148;48.972;12.794;2022-09-13T22:19:33;15.50;99.90
27759;DHT22;15148;48.972;12.794;2022-09-13T22:24:35;15.40;99.90
27759;DHT22;15148;48.972;12.794;2022-09-13T22:29:37;15.50;99.90
27759;DHT22;15148;48.972;12.794;2022-09-13T22:34:38;15.40;99.90
27759;DHT22;15148;48.972;12.794;2022-09-13T22:39:41;15.40;99.90
27759;DHT22;15148;48.972;12.794;2022-09-13T22:44:43;15.40;99.90
27759;DHT22;15148;48.972;12.794;2022-09-13T22:49:45;15.40;99.90
27759;DHT22;15148;48.972;12.794;2022-09-13T22:54:46;15.40;99.90
27759;DHT22;15148;48.972;12.794;2022-09-13T22:59:51;15.30;99.90
27759;DHT22;15148;48.972;12.794;2022-09-13T23:04:53;15.30;99.90
27759;DHT22;15148;48.972;12.794;2022-09-13T23:09:55;15.20;99.90
27759;DHT22;15148;48.972;12.794;2022-09-13T23:14:56;15.20;99.90
27759;DHT22;15148;48.972;12.794;2022-09-13T23:19:58;15.20;99.90
27759;DHT22;15148;48.972;12.794;2022-09-13T23:25:00;15.20;99.90
27759;DHT22;15148;48.972;12.794;2022-09-13T23:30:02;15.20;99.90
27759;DHT22;15148;48.972;12.794;2022-09-13T23:35:05;15.20;99.90
27759;DHT22;15148;48.972;12.794;2022-09-13T23:40:08;15.10;99.90
27759;DHT22;15148;48.972;12.794;2022-09-13T23:45:10;15.20;99.90
27759;DHT22;15148;48.972;12.794;2022-09-13T23:50:12;15.10;99.90
27759;DHT22;15148;48.972;12.794;2022-09-13T23:55:14;15.20;99.90
